Time;durP1;ratioP1;P1;durP2;ratioP2;P2;SDS_P1;SDS_P2;PMS_P1;PMS_P2;Temp;Humidity;BMP_temperature;BMP_pressure;BME280_temperature;BME280_humidity;BME280_pressure;Samples;Min_cycle;Max_cycle;Signal;HPM_P1;HPM_P2
2022/11/12 00:00:04;;;;;;;1.40;1.30;;;;;;;8.87;79.27;102276.59;5069820;28;20210;-78
2022/11/12 00:02:31;;;;;;;1.50;1.33;;;;;;;8.82;79.59;102270.44;5061302;28;20200;-77
2022/11/12 00:04:57;;;;;;;2.37;1.43;;;;;;;8.75;79.22;102270.31;5055668;28;20245;-78
2022/11/12 00:07:24;;;;;;;1.93;1.50;;;;;;;8.72;79.39;102274.59;5052492;28;20194;-77
2022/11/12 00:09:51;;;;;;;1.47;1.37;;;;;;;8.75;78.93;102280.72;5071428;28;20232;-77
2022/11/12 00:12:18;;;;;;;5.83;1.80;;;;;;;8.76;79.44;102281.63;5071382;28;20685;-78
2022/11/12 00:14:44;;;;;;;1.60;1.50;;;;;;;8.71;78.39;102291.94;5071848;28;20212;-78
2022/11/12 00:17:11;;;;;;;3.00;1.70;;;;;;;8.72;77.91;102298.91;5072732;28;20223;-77
2022/11/12 00:19:37;;;;;;;1.93;1.53;;;;;;;8.72;78.36;102309.34;5067604;28;20217;-78
2022/11/12 00:22:03;;;;;;;1.50;1.40;;;;;;;8.74;78.58;102312.84;5065095;28;20204;-78
2022/11/12 00:24:30;;;;;;;1.97;1.87;;;;;;;8.72;78.74;102316.25;5065400;28;20195;-78
2022/11/12 00:26:58;;;;;;;2.03;1.33;;;;;;;8.63;78.31;102319.56;5064652;28;20196;-78
2022/11/12 00:29:24;;;;;;;3.00;1.90;;;;;;;8.63;78.24;102318.69;5066502;28;20221;-78
2022/11/12 00:31:50;;;;;;;1.83;1.53;;;;;;;8.51;78.48;102325.41;5064562;28;20224;-78
2022/11/12 00:34:17;;;;;;;3.83;1.93;;;;;;;8.47;79.27;102307.97;5063370;28;20200;-78
2022/11/12 00:36:43;;;;;;;2.60;1.73;;;;;;;8.47;79.07;102294.09;5062392;28;20677;-78
2022/11/12 00:39:10;;;;;;;2.30;1.70;;;;;;;8.42;79.61;102287.91;5061795;28;20225;-79
2022/11/12 00:41:36;;;;;;;3.23;1.80;;;;;;;8.33;79.63;102276.44;5061704;28;20197;-79
2022/11/12 00:44:04;;;;;;;2.57;1.70;;;;;;;8.34;79.82;102259.09;5063488;28;20204;-79
2022/11/12 00:46:31;;;;;;;2.23;1.53;;;;;;;8.35;79.82;102259.13;5061740;28;20216;-78
2022/11/12 00:48:57;;;;;;;6.00;1.97;;;;;;;8.34;79.72;102253.88;5062195;28;20221;-79
2022/11/12 00:51:24;;;;;;;2.17;1.90;;;;;;;8.27;80.68;102252.91;5062443;28;20199;-78
2022/11/12 00:53:50;;;;;;;2.77;2.13;;;;;;;8.26;80.39;102243.31;5063258;28;20207;-78
2022/11/12 00:56:17;;;;;;;3.37;2.27;;;;;;;8.20;79.79;102256.22;5062354;28;20189;-79
2022/11/12 00:58:43;;;;;;;2.00;1.33;;;;;;;8.18;80.13;102264.84;5064288;28;20707;-79
2022/11/12 01:01:14;;;;;;;2.07;1.40;;;;;;;8.16;79.93;102264.81;5061599;28;20200;-79
2022/11/12 01:03:41;;;;;;;1.60;1.43;;;;;;;8.16;79.64;102268.28;5063509;28;20217;-77
2022/11/12 01:06:11;;;;;;;2.27;2.00;;;;;;;8.15;80.11;102261.34;5065493;28;20224;-78
2022/11/12 01:08:38;;;;;;;2.70;1.47;;;;;;;8.13;79.91;102275.16;5063897;28;20231;-78
2022/11/12 01:11:06;;;;;;;2.13;1.53;;;;;;;8.16;79.59;102272.59;5074624;28;20205;-78
2022/11/12 01:13:32;;;;;;;2.83;1.90;;;;;;;8.18;79.49;102283.06;5074423;28;20694;-79
2022/11/12 01:15:59;;;;;;;2.07;1.60;;;;;;;8.21;79.34;102280.53;5074425;28;20204;-78
2022/11/12 01:18:27;;;;;;;2.03;1.83;;;;;;;8.19;79.67;102285.69;5074473;28;20220;-78
2022/11/12 01:20:54;;;;;;;2.00;1.80;;;;;;;8.20;79.67;102277.03;5073438;28;20218;-78
2022/11/12 01:23:20;;;;;;;3.13;1.70;;;;;;;8.15;78.99;102299.47;5074269;28;20209;-78
2022/11/12 01:25:47;;;;;;;3.40;1.60;;;;;;;8.18;78.95;102299.53;5074404;28;20221;-78
2022/11/12 01:28:13;;;;;;;2.40;1.17;;;;;;;8.13;78.98;102312.44;5073465;28;20224;-79
2022/11/12 01:30:39;;;;;;;1.70;1.60;;;;;;;8.08;79.50;102313.19;5073710;28;20205;-78
2022/11/12 01:33:06;;;;;;;2.57;1.63;;;;;;;8.07;79.80;102295.84;5074017;28;20681;-78
2022/11/12 01:35:34;;;;;;;1.50;1.40;;;;;;;7.98;81.06;102283.50;5074214;28;20244;-78
2022/11/12 01:38:00;;;;;;;1.80;1.23;;;;;;;8.03;81.36;102249.81;5074092;28;20226;-79
2022/11/12 01:40:26;;;;;;;1.73;1.60;;;;;;;7.96;81.63;102238.38;5073798;28;20671;-78
2022/11/12 01:42:53;;;;;;;1.97;1.27;;;;;;;7.96;80.72;102235.78;5074371;28;20221;-78
2022/11/12 01:45:20;;;;;;;1.80;1.37;;;;;;;7.90;81.42;102233.06;5073850;28;20220;-79
2022/11/12 01:47:49;;;;;;;2.83;1.67;;;;;;;7.91;81.08;102229.63;5074221;28;20230;-77
2022/11/12 01:50:21;;;;;;;1.30;1.20;;;;;;;7.93;80.92;102233.13;5073810;28;20207;-79
2022/11/12 01:52:53;;;;;;;1.60;1.30;;;;;;;7.92;80.99;102231.38;5074013;28;20212;-79
2022/11/12 01:55:23;;;;;;;1.47;1.07;;;;;;;7.91;80.81;102234.84;5073901;28;20590;-79
2022/11/12 01:57:55;;;;;;;1.93;1.47;;;;;;;7.87;80.46;102251.19;5073629;28;20208;-79
2022/11/12 02:00:22;;;;;;;1.40;1.30;;;;;;;7.84;80.47;102246.81;5074011;28;20277;-79
2022/11/12 02:02:54;;;;;;;2.23;1.60;;;;;;;7.85;80.61;102247.66;5074274;28;20221;-78
2022/11/12 02:05:23;;;;;;;2.30;1.30;;;;;;;7.83;81.20;102232.06;5074016;28;20725;-78
2022/11/12 02:07:52;;;;;;;2.27;1.50;;;;;;;7.85;80.46;102235.56;5073730;28;20208;-78
2022/11/12 02:10:19;;;;;;;1.93;1.70;;;;;;;7.84;80.21;102245.94;5072949;28;20258;-78
2022/11/12 02:15:31;;;;;;;1.50;1.40;;;;;;;7.67;81.86;102217.88;5073880;28;20287;-78
2022/11/12 02:17:58;;;;;;;1.60;1.50;;;;;;;7.64;83.17;102178.78;5073891;28;20232;-79
2022/11/12 02:20:24;;;;;;;4.83;1.50;;;;;;;7.63;83.84;102144.97;5073353;28;20236;-79
2022/11/12 02:22:52;;;;;;;2.07;1.50;;;;;;;7.68;84.96;102114.78;5073517;28;20200;-78
2022/11/12 02:25:24;;;;;;;1.63;1.47;;;;;;;7.58;85.93;102094.66;5073542;28;20236;-78
2022/11/12 02:27:53;;;;;;;1.70;1.30;;;;;;;7.52;86.23;102062.47;5073833;28;20215;-79
2022/11/12 02:30:30;;;;;;;1.57;1.47;;;;;;;7.54;87.39;102023.53;5073320;28;20219;-79
2022/11/12 02:32:57;;;;;;;5.43;1.80;;;;;;;7.59;88.05;102001.13;5073671;28;20208;-78
2022/11/12 02:35:24;;;;;;;2.03;1.83;;;;;;;7.69;88.50;101983.94;5073339;28;20208;-79
2022/11/12 02:37:50;;;;;;;2.83;1.70;;;;;;;7.80;87.36;101997.16;5074303;28;20212;-79
2022/11/12 02:40:18;;;;;;;3.40;1.63;;;;;;;7.85;86.14;102025.00;5073175;28;20203;-78
2022/11/12 02:42:45;;;;;;;1.80;1.70;;;;;;;7.80;85.38;102060.41;5073648;28;20201;-78
2022/11/12 02:45:11;;;;;;;1.83;1.40;;;;;;;7.81;84.80;102082.06;5073664;28;20205;-78
2022/11/12 02:47:37;;;;;;;1.67;1.57;;;;;;;7.78;84.63;102100.22;5073650;28;20211;-78
2022/11/12 02:50:05;;;;;;;4.20;1.60;;;;;;;7.70;84.18;102119.13;5073235;28;20205;-79
2022/11/12 02:52:31;;;;;;;2.77;1.57;;;;;;;7.68;84.54;102119.97;5073666;28;20205;-78
2022/11/12 02:54:58;;;;;;;2.83;1.60;;;;;;;7.69;84.38;102125.19;5073975;28;20208;-78
2022/11/12 02:57:26;;;;;;;1.50;1.40;;;;;;;7.65;84.23;102136.38;5073670;28;20212;-78
2022/11/12 02:59:52;;;;;;;3.60;1.40;;;;;;;7.62;83.73;102140.63;5073275;28;20231;-78
2022/11/12 03:02:19;;;;;;;2.33;1.50;;;;;;;7.58;83.83;102144.03;5072945;28;20636;-78
2022/11/12 03:04:45;;;;;;;1.50;1.40;;;;;;;7.54;83.75;102128.34;5073395;28;20208;-78
2022/11/12 03:07:11;;;;;;;1.97;1.50;;;;;;;7.55;85.35;102124.03;5073590;28;20236;-79
2022/11/12 03:09:38;;;;;;;1.97;1.30;;;;;;;7.53;84.89;102115.31;5073966;28;20738;-77
2022/11/12 03:12:04;;;;;;;1.57;1.47;;;;;;;7.48;84.02;102123.03;5076680;28;20216;-79
2022/11/12 03:14:32;;;;;;;1.60;1.50;;;;;;;7.46;84.33;102131.66;5077234;28;20205;-79
2022/11/12 03:16:59;;;;;;;2.27;1.57;;;;;;;7.46;84.03;102132.50;5076941;28;20201;-79
2022/11/12 03:19:25;;;;;;;2.17;1.60;;;;;;;7.52;85.00;102122.25;5076778;28;20733;-78
2022/11/12 03:21:51;;;;;;;2.43;1.77;;;;;;;7.59;84.74;102119.78;5076328;28;20205;-79
2022/11/12 03:24:18;;;;;;;1.93;1.60;;;;;;;7.61;85.03;102113.78;5076731;28;20200;-79
2022/11/12 03:26:44;;;;;;;2.33;1.70;;;;;;;7.62;85.41;102102.53;5077266;28;20239;-79
2022/11/12 03:29:11;;;;;;;2.40;1.87;;;;;;;7.62;85.35;102109.44;5076706;28;20722;-78
2022/11/12 03:31:39;;;;;;;1.87;1.50;;;;;;;7.63;84.22;102132.88;5076082;28;20201;-79
2022/11/12 03:34:05;;;;;;;1.80;1.70;;;;;;;7.54;84.46;102137.88;5076555;28;20200;-79
2022/11/12 03:36:32;;;;;;;1.60;1.50;;;;;;;7.52;85.19;102127.44;5076684;28;20202;-79
2022/11/12 03:38:58;;;;;;;2.43;1.80;;;;;;;7.48;84.78;102119.56;5076537;28;20229;-78
2022/11/12 03:41:25;;;;;;;3.13;1.90;;;;;;;7.48;85.06;102112.63;5076445;28;20212;-78
2022/11/12 03:43:51;;;;;;;1.87;1.77;;;;;;;7.52;84.75;102113.56;5076996;28;20212;-79
2022/11/12 03:46:17;;;;;;;2.40;1.90;;;;;;;7.52;85.05;102105.78;5076409;28;20227;-78
2022/11/12 03:48:45;;;;;;;2.87;2.50;;;;;;;7.51;84.87;102112.72;5077113;28;20228;-78
2022/11/12 03:51:15;;;;;;;2.10;1.90;;;;;;;7.47;84.99;102110.91;5076119;28;20204;-78
2022/11/12 03:53:41;;;;;;;2.47;1.90;;;;;;;7.47;84.80;102110.91;5075485;28;20216;-78
2022/11/12 03:56:08;;;;;;;2.30;1.83;;;;;;;7.50;84.23;102128.25;5075193;28;20200;-78
2022/11/12 03:58:34;;;;;;;3.30;1.97;;;;;;;7.40;84.38;102134.97;5075429;28;20433;-78
2022/11/12 04:01:01;;;;;;;1.73;1.63;;;;;;;7.35;83.28;102150.47;5074684;28;20212;-78
2022/11/12 04:03:27;;;;;;;2.30;1.63;;;;;;;7.31;83.67;102169.44;5075225;28;20220;-78
2022/11/12 04:08:39;;;;;;;3.30;1.60;;;;;;;7.24;87.43;102089.63;5075166;28;20274;-78
2022/11/12 04:11:08;;;;;;;3.33;1.90;;;;;;;7.30;87.32;102049.91;5074825;28;20213;-78
2022/11/12 04:13:34;;;;;;;1.67;1.57;;;;;;;7.31;86.70;102046.47;5075050;28;20204;-78
2022/11/12 04:21:56;;;;;;;2.40;2.07;;;;;;;7.29;85.83;102081.91;5074613;28;20208;-78
2022/11/12 04:27:13;;;;;;;2.03;1.77;;;;;;;7.26;86.45;102076.66;5074709;28;20725;-79
2022/11/12 04:32:25;;;;;;;2.13;1.60;;;;;;;7.27;85.17;102096.59;5075185;28;20632;-78
2022/11/12 04:34:52;;;;;;;3.30;2.30;;;;;;;7.29;84.02;102111.34;5074770;28;20266;-78
2022/11/12 04:37:21;;;;;;;2.10;1.93;;;;;;;7.24;84.70;102128.56;5074480;28;20208;-78
2022/11/12 04:39:47;;;;;;;1.77;1.67;;;;;;;7.25;83.44;102169.28;5074369;28;20785;-77
2022/11/12 04:45:02;;;;;;;2.60;2.33;;;;;;;7.15;83.17;102199.38;5074598;28;20206;-79
2022/11/12 04:47:30;;;;;;;3.00;2.30;;;;;;;7.13;83.30;102181.97;5074673;28;20225;-79
2022/11/12 04:49:57;;;;;;;2.53;2.10;;;;;;;7.12;83.97;102152.56;5073717;28;20229;-78
2022/11/12 04:52:26;;;;;;;2.63;2.40;;;;;;;7.02;83.95;102160.97;5074452;28;20250;-78
2022/11/12 04:54:53;;;;;;;3.27;2.97;;;;;;;7.03;84.18;102148.88;5074316;28;20208;-79
2022/11/12 04:57:19;;;;;;;3.07;2.77;;;;;;;7.06;83.59;102148.94;5074136;28;20205;-78
2022/11/12 04:59:46;;;;;;;3.10;2.80;;;;;;;7.07;84.05;102148.97;5074101;28;20225;-78
2022/11/12 05:02:12;;;;;;;3.43;3.13;;;;;;;7.03;84.18;102141.94;5073898;28;20216;-78
2022/11/12 05:04:39;;;;;;;3.90;3.60;;;;;;;6.87;85.10;102132.06;5074144;28;20209;-78
2022/11/12 05:07:06;;;;;;;5.13;3.60;;;;;;;6.62;86.10;102112.41;5074286;28;20228;-78
2022/11/12 05:09:34;;;;;;;3.87;3.30;;;;;;;6.33;87.95;102066.75;5074175;28;20582;-78
2022/11/12 05:12:01;;;;;;;4.53;3.10;;;;;;;6.19;89.52;102028.38;5073522;28;20205;-78
2022/11/12 05:14:27;;;;;;;3.50;3.20;;;;;;;6.13;90.80;101974.66;5073879;28;20213;-78
2022/11/12 05:16:54;;;;;;;3.20;2.90;;;;;;;6.27;89.93;101949.06;5074057;28;20695;-78
2022/11/12 05:19:21;;;;;;;3.67;2.53;;;;;;;6.43;89.90;101943.38;5073370;28;20225;-78
2022/11/12 05:22:06;;;;;;;3.20;2.70;;;;;;;6.53;89.79;101947.91;5073876;28;20632;-79
2022/11/12 05:24:36;;;;;;;2.50;2.30;;;;;;;6.51;88.58;101975.53;5074076;28;20205;-79
2022/11/12 05:27:04;;;;;;;2.33;2.17;;;;;;;6.54;87.97;101990.28;5073254;28;20224;-78
2022/11/12 05:29:30;;;;;;;3.23;2.70;;;;;;;6.57;87.68;101993.84;5073747;28;20224;-78
2022/11/12 05:31:56;;;;;;;3.33;2.63;;;;;;;6.58;88.56;102005.13;5073285;28;20690;-79
2022/11/12 05:34:23;;;;;;;2.67;2.00;;;;;;;6.63;88.13;102015.59;5073409;28;20732;-79
2022/11/12 05:36:50;;;;;;;2.23;2.00;;;;;;;6.65;87.53;102038.13;5073585;28;20698;-78
2022/11/12 05:39:16;;;;;;;2.80;1.90;;;;;;;6.68;86.37;102046.00;5073268;28;20239;-79
2022/11/12 05:41:44;;;;;;;1.90;1.77;;;;;;;6.71;86.86;102048.63;5072975;28;20201;-79
2022/11/12 05:44:11;;;;;;;2.90;1.90;;;;;;;6.74;86.58;102060.81;5073632;28;20215;-78
2022/11/12 05:46:37;;;;;;;1.90;1.80;;;;;;;6.74;85.95;102084.19;5073490;28;20220;-79
2022/11/12 05:49:03;;;;;;;3.63;1.93;;;;;;;6.76;85.39;102098.94;5073762;28;20691;-79
2022/11/12 05:51:30;;;;;;;3.10;1.87;;;;;;;6.71;86.70;102086.69;5073433;28;20251;-79
2022/11/12 05:53:57;;;;;;;3.27;1.90;;;;;;;6.72;86.92;102070.28;5073560;28;20209;-79
2022/11/12 05:56:23;;;;;;;2.07;1.83;;;;;;;6.72;88.28;102042.63;5072783;28;20207;-79
2022/11/12 05:58:51;;;;;;;3.30;2.00;;;;;;;6.72;88.35;102028.78;5073546;28;20731;-79
2022/11/12 06:01:17;;;;;;;2.87;1.67;;;;;;;6.80;88.04;102027.22;5072978;28;20208;-79
2022/11/12 06:03:44;;;;;;;2.37;2.17;;;;;;;6.74;87.77;102027.09;5073559;28;20686;-79
2022/11/12 06:06:10;;;;;;;1.93;1.77;;;;;;;6.72;88.37;102021.84;5073453;28;20212;-78
2022/11/12 06:08:37;;;;;;;2.47;1.70;;;;;;;6.75;88.06;102015.84;5073439;28;20231;-79
2022/11/12 06:11:03;;;;;;;2.00;1.80;;;;;;;6.79;87.44;102027.19;5073189;28;20211;-77
2022/11/12 06:13:30;;;;;;;2.50;1.70;;;;;;;6.81;86.08;102047.13;5073387;28;20205;-79
2022/11/12 06:15:58;;;;;;;1.80;1.70;;;;;;;6.71;86.25;102082.38;5073336;28;20675;-78
2022/11/12 06:18:25;;;;;;;2.10;2.00;;;;;;;6.70;86.39;102092.69;5073148;28;20224;-79
2022/11/12 06:23:32;;;;;;;6.17;2.47;;;;;;;6.67;85.28;102113.41;5072933;28;20682;-79
2022/11/12 06:25:59;;;;;;;2.37;2.13;;;;;;;6.68;85.60;102129.03;5073584;28;20208;-79
2022/11/12 06:28:34;;;;;;;1.93;1.83;;;;;;;6.62;87.19;102100.34;5073093;28;20327;-77
2022/11/12 06:31:02;;;;;;;1.93;1.80;;;;;;;6.61;88.36;102061.38;5072742;28;20676;-78
2022/11/12 06:33:28;;;;;;;1.57;1.47;;;;;;;6.60;88.16;102033.66;5072990;28;20231;-78
2022/11/12 06:36:01;;;;;;;2.50;1.47;;;;;;;6.70;88.34;102022.63;5074076;28;20209;-79
2022/11/12 06:38:28;;;;;;;2.17;1.97;;;;;;;6.65;88.51;102045.03;5073414;28;20225;-78
2022/11/12 06:40:55;;;;;;;2.87;2.37;;;;;;;6.36;90.76;102014.09;5073311;28;20216;-78
2022/11/12 06:43:21;;;;;;;3.27;2.10;;;;;;;6.14;91.63;101968.63;5063765;28;20197;-78
2022/11/12 06:45:47;;;;;;;3.30;3.00;;;;;;;6.09;92.89;101923.56;5064740;28;20597;-78
2022/11/12 06:48:15;;;;;;;4.40;3.30;;;;;;;6.23;92.53;101917.00;5065750;28;20224;-78
2022/11/12 06:50:42;;;;;;;3.70;3.07;;;;;;;6.33;91.58;101928.44;5067124;28;20203;-78
2022/11/12 06:53:08;;;;;;;3.90;3.50;;;;;;;6.38;90.55;101954.47;5066350;28;20204;-78
2022/11/12 06:55:34;;;;;;;5.07;3.73;;;;;;;6.41;89.33;101985.69;5065751;28;20199;-79
2022/11/12 06:58:01;;;;;;;3.50;3.20;;;;;;;6.50;89.61;102012.72;5068045;28;20240;-79
2022/11/12 07:00:27;;;;;;;3.57;3.37;;;;;;;6.47;89.08;102033.38;5065361;28;20212;-78
2022/11/12 07:02:54;;;;;;;3.90;3.60;;;;;;;6.47;88.21;102041.16;5065592;28;20216;-78
2022/11/12 07:05:21;;;;;;;3.47;3.17;;;;;;;6.50;88.18;102055.91;5067007;28;20201;-78
2022/11/12 07:07:48;;;;;;;4.00;3.20;;;;;;;6.46;87.95;102061.88;5065813;28;20221;-78
2022/11/12 07:10:15;;;;;;;3.10;2.90;;;;;;;6.51;87.84;102078.44;5064524;28;20212;-79
2022/11/12 07:12:41;;;;;;;3.70;2.90;;;;;;;6.61;87.75;102093.38;5066818;28;20205;-78
2022/11/12 07:15:08;;;;;;;4.43;2.87;;;;;;;6.64;87.64;102100.34;5065082;28;20225;-78
2022/11/12 07:17:34;;;;;;;2.67;2.47;;;;;;;6.67;88.03;102103.03;5065959;28;20209;-78
2022/11/12 07:20:01;;;;;;;3.07;2.23;;;;;;;6.71;88.33;102078.91;5065920;28;20197;-78
2022/11/12 07:22:29;;;;;;;3.43;1.93;;;;;;;6.76;88.60;102061.75;5065977;28;20574;-78
2022/11/12 07:24:55;;;;;;;1.80;1.70;;;;;;;6.86;89.22;102047.25;5069548;28;20205;-79
2022/11/12 07:27:21;;;;;;;2.77;1.87;;;;;;;6.89;89.62;102042.09;5070483;28;20315;-79
2022/11/12 07:29:48;;;;;;;2.13;1.93;;;;;;;6.96;89.90;102033.63;5068100;28;20217;-78
2022/11/12 07:32:14;;;;;;;2.77;2.57;;;;;;;7.00;88.57;102052.72;5064467;28;20193;-78
2022/11/12 07:34:41;;;;;;;3.20;2.90;;;;;;;7.04;88.47;102064.94;5064982;28;20205;-79
2022/11/12 07:37:07;;;;;;;3.20;2.90;;;;;;;6.99;88.12;102070.03;5063324;28;20251;-78
2022/11/12 07:39:35;;;;;;;5.80;2.67;;;;;;;6.95;89.55;102050.91;5064572;28;20220;-79
2022/11/12 07:42:01;;;;;;;10.07;6.63;;;;;;;6.49;89.60;102033.41;5065082;28;20297;-78
2022/11/12 07:44:28;;;;;;;10.87;8.20;;;;;;;6.39;89.49;102027.13;5063071;28;20205;-78
2022/11/12 07:46:54;;;;;;;7.07;6.37;;;;;;;6.22;89.05;102039.69;5064098;28;20270;-79
2022/11/12 07:49:21;;;;;;;5.00;4.60;;;;;;;5.75;90.73;102034.16;5064447;28;20595;-78
2022/11/12 07:51:47;;;;;;;5.47;5.03;;;;;;;5.63;92.50;101979.38;5062481;28;20209;-78
2022/11/12 07:54:14;;;;;;;6.33;5.10;;;;;;;5.52;93.99;101954.09;5063812;28;20201;-78
2022/11/12 07:56:42;;;;;;;5.77;5.30;;;;;;;5.54;94.94;101910.97;5061693;28;20204;-78
2022/11/12 07:59:08;;;;;;;5.23;4.33;;;;;;;5.63;94.84;101897.41;5064277;28;20238;-78
2022/11/12 08:01:36;;;;;;;5.63;5.13;;;;;;;5.67;94.96;101888.88;5062573;28;20667;-78
2022/11/12 08:04:05;;;;;;;5.40;4.90;;;;;;;5.66;95.71;101888.81;5063688;28;20201;-78
2022/11/12 08:06:32;;;;;;;5.27;4.57;;;;;;;5.63;95.88;101876.69;5064504;28;20228;-78
2022/11/12 08:09:03;;;;;;;4.93;4.33;;;;;;;5.70;96.06;101863.00;5063410;28;20232;-78
2022/11/12 08:11:30;;;;;;;6.97;4.80;;;;;;;5.93;96.65;101867.88;5061958;28;20734;-78
2022/11/12 08:13:58;;;;;;;4.30;4.00;;;;;;;6.16;95.96;101873.59;5064142;28;20227;-79
2022/11/12 08:16:24;;;;;;;4.20;3.80;;;;;;;6.32;95.52;101895.56;5065869;28;20204;-80
2022/11/12 08:18:51;;;;;;;4.33;3.97;;;;;;;6.29;94.08;101924.03;5060731;28;20217;-78
2022/11/12 08:21:18;;;;;;;4.87;4.43;;;;;;;6.46;94.28;101939.97;5063187;28;20595;-78
2022/11/12 08:23:45;;;;;;;4.43;4.03;;;;;;;6.65;94.11;101941.25;5060253;28;20638;-78
2022/11/12 08:26:14;;;;;;;4.27;3.87;;;;;;;6.71;93.78;101949.16;5063073;28;20198;-78
2022/11/12 08:28:40;;;;;;;5.23;4.70;;;;;;;6.72;93.19;101964.78;5063817;28;20222;-78
2022/11/12 08:31:11;;;;;;;4.77;4.03;;;;;;;6.83;92.98;101979.69;5062553;28;20212;-79
2022/11/12 08:33:39;;;;;;;4.87;4.43;;;;;;;6.97;92.32;101986.91;5054343;28;20190;-78
2022/11/12 08:36:08;;;;;;;3.90;3.60;;;;;;;7.16;91.99;101990.78;5053486;28;20193;-79
2022/11/12 08:38:35;;;;;;;5.90;3.70;;;;;;;7.18;91.67;102010.72;5053702;28;20213;-79
2022/11/12 08:41:02;;;;;;;4.40;4.00;;;;;;;7.16;92.75;102001.16;5055845;28;20215;-79
2022/11/12 08:43:29;;;;;;;5.63;5.13;;;;;;;7.10;93.11;102006.22;5055945;28;20216;-79
2022/11/12 08:45:58;;;;;;;6.93;4.20;;;;;;;7.12;93.42;101993.28;5054889;28;20568;-78
2022/11/12 08:48:26;;;;;;;5.00;4.60;;;;;;;7.13;94.16;101975.09;5053534;28;20229;-78
2022/11/12 08:50:53;;;;;;;4.83;4.53;;;;;;;7.19;94.85;101961.38;5053189;28;20220;-78
2022/11/12 08:53:22;;;;;;;5.00;4.60;;;;;;;7.23;95.74;101936.34;5054019;28;20194;-78
2022/11/12 08:55:49;;;;;;;13.17;12.17;;;;;;;7.27;95.54;101923.44;5061628;28;20193;-77
2022/11/12 08:58:15;;;;;;;8.60;7.97;;;;;;;7.44;95.57;101928.09;5063295;28;20267;-78
2022/11/12 09:00:44;;;;;;;5.97;5.47;;;;;;;7.61;96.21;101920.56;5062319;28;20209;-78
2022/11/12 09:03:16;;;;;;;34.63;30.77;;;;;;;7.56;96.48;101903.19;5062871;28;20205;-78
2022/11/12 09:05:43;;;;;;;7.40;6.80;;;;;;;7.62;96.59;101893.75;5070869;28;20671;-78
2022/11/12 09:08:12;;;;;;;5.77;5.17;;;;;;;7.74;96.86;101894.81;5064723;28;20228;-78
2022/11/12 09:10:39;;;;;;;7.63;7.13;;;;;;;7.90;97.63;101890.72;5060259;28;20207;-78
2022/11/12 09:13:06;;;;;;;6.30;5.77;;;;;;;8.09;98.07;101872.81;5060302;28;20663;-79
2022/11/12 09:15:33;;;;;;;6.23;5.53;;;;;;;8.19;97.72;101879.91;5059504;28;20581;-78
2022/11/12 09:18:01;;;;;;;5.80;5.40;;;;;;;8.35;97.10;101894.00;5062863;28;20572;-79
2022/11/12 09:20:28;;;;;;;10.10;9.30;;;;;;;8.50;97.02;101896.84;5060895;28;20195;-78
2022/11/12 09:23:00;;;;;;;7.10;6.60;;;;;;;8.62;96.51;101918.66;5062035;28;20200;-77
2022/11/12 09:25:26;;;;;;;8.10;7.30;;;;;;;8.72;96.51;101924.03;5060675;28;20193;-77
2022/11/12 09:27:53;;;;;;;16.40;14.43;;;;;;;8.82;95.67;101932.81;5053241;28;20233;-79
2022/11/12 09:30:19;;;;;;;12.70;11.57;;;;;;;9.05;95.98;101948.69;5053042;28;20206;-78
2022/11/12 09:32:46;;;;;;;7.37;6.77;;;;;;;9.33;96.10;101946.41;5064987;28;20208;-78
2022/11/12 09:35:12;;;;;;;6.47;5.97;;;;;;;9.60;95.92;101943.22;5073669;28;20204;-78
2022/11/12 09:37:39;;;;;;;6.40;5.90;;;;;;;9.71;94.71;101957.22;5074193;28;20203;-78
2022/11/12 09:40:16;;;;;;;6.03;5.60;;;;;;;9.97;95.09;101969.63;5074793;28;20205;-80
2022/11/12 09:42:49;;;;;;;7.30;6.60;;;;;;;10.18;94.51;101981.94;5059570;28;20193;-78
2022/11/12 09:45:24;;;;;;;6.20;5.70;;;;;;;10.38;93.58;102000.38;5075081;28;20205;-79
2022/11/12 09:47:56;;;;;;;7.33;6.63;;;;;;;10.45;92.72;102037.88;5074394;28;20225;-79
2022/11/12 09:50:27;;;;;;;6.13;5.73;;;;;;;10.45;91.68;102064.84;5070483;28;20211;-79
2022/11/12 09:53:01;;;;;;;5.73;5.23;;;;;;;10.41;90.12;102091.78;5071089;28;20211;-79
2022/11/12 09:55:34;;;;;;;7.03;6.40;;;;;;;10.25;89.30;102127.28;5054291;28;20213;-79
2022/11/12 09:58:01;;;;;;;5.70;5.20;;;;;;;10.17;89.89;102149.81;5054653;28;20253;-79
2022/11/12 10:00:29;;;;;;;5.77;5.27;;;;;;;10.18;89.69;102148.09;5065652;28;20203;-79
2022/11/12 10:03:03;;;;;;;9.33;8.53;;;;;;;10.25;89.68;102150.78;5058900;28;20213;-79
2022/11/12 10:05:34;;;;;;;6.43;5.70;;;;;;;10.37;89.10;102159.63;5054227;28;20678;-78
2022/11/12 10:08:11;;;;;;;10.70;9.67;;;;;;;10.45;89.38;102151.00;5054148;28;20259;-79
2022/11/12 10:10:45;;;;;;;9.53;8.73;;;;;;;10.61;89.06;102156.38;5053517;28;20209;-79
2022/11/12 10:13:29;;;;;;;9.27;8.30;;;;;;;10.74;88.90;102163.41;5052611;28;20201;-79
2022/11/12 10:19:05;;;;;;;6.33;5.83;;;;;;;10.90;89.17;102164.41;5052499;28;20295;-78
2022/11/12 10:21:40;;;;;;;5.93;5.33;;;;;;;10.98;89.43;102156.63;5055465;28;20716;-79
2022/11/12 10:24:09;;;;;;;6.63;6.03;;;;;;;11.02;89.22;102163.63;5055535;28;20206;-78
2022/11/12 10:26:39;;;;;;;6.23;5.63;;;;;;;11.00;89.45;102144.44;5055952;28;20557;-79
2022/11/12 10:29:14;;;;;;;6.27;5.80;;;;;;;11.10;89.99;102117.53;5057197;28;20234;-79
2022/11/12 10:31:40;;;;;;;6.43;5.90;;;;;;;11.17;90.22;102107.97;5059875;28;20679;-79
2022/11/12 10:34:18;;;;;;;5.80;5.27;;;;;;;11.25;90.33;102112.38;5067517;28;20202;-78
2022/11/12 10:36:48;;;;;;;6.37;5.77;;;;;;;11.30;90.54;102099.34;5062553;28;20409;-78
2022/11/12 10:39:32;;;;;;;6.73;6.23;;;;;;;11.39;90.63;102080.19;5057894;28;20243;-78
2022/11/12 10:42:05;;;;;;;5.87;5.37;;;;;;;11.50;90.67;102078.50;5056747;28;20210;-79
2022/11/12 10:44:32;;;;;;;5.73;5.23;;;;;;;11.61;90.06;102079.41;5057539;28;20214;-79
2022/11/12 10:47:19;;;;;;;5.30;4.90;;;;;;;11.65;88.97;102109.94;5066278;28;20212;-79
2022/11/12 10:50:02;;;;;;;5.43;5.03;;;;;;;11.75;88.69;102131.75;5075846;28;20770;-77
2022/11/12 10:52:29;;;;;;;5.87;5.43;;;;;;;11.81;88.86;102120.44;5076445;28;20638;-77
2022/11/12 10:55:05;;;;;;;6.07;5.47;;;;;;;11.88;88.93;102111.75;5076140;28;20208;-77
2022/11/12 10:57:33;;;;;;;6.90;6.23;;;;;;;11.82;89.71;102094.28;5078348;28;20204;-77
2022/11/12 11:00:08;;;;;;;6.70;5.43;;;;;;;11.88;88.88;102107.38;5079679;28;20221;-77
2022/11/12 11:02:34;;;;;;;5.13;4.63;;;;;;;11.98;87.73;102125.78;5079416;28;20229;-77
2022/11/12 11:05:27;;;;;;;5.53;5.03;;;;;;;12.07;86.11;102160.69;5079500;28;20221;-77
2022/11/12 11:07:53;;;;;;;4.80;4.50;;;;;;;12.16;85.46;102204.34;5080858;28;20231;-77
2022/11/12 11:10:24;;;;;;;5.00;4.60;;;;;;;12.20;85.59;102213.94;5080085;28;20216;-77
2022/11/12 11:13:09;;;;;;;5.10;4.70;;;;;;;12.38;85.29;102207.03;5081418;28;20758;-77
2022/11/12 11:15:36;;;;;;;3.50;3.17;;;;;;;12.46;83.68;102247.19;5080897;28;20210;-78
2022/11/12 11:18:03;;;;;;;4.83;3.50;;;;;;;12.57;83.16;102276.03;5077202;28;20222;-78
2022/11/12 11:20:36;;;;;;;2.93;2.73;;;;;;;12.77;82.19;102286.56;5076175;28;20209;-79
2022/11/12 11:23:06;;;;;;;3.20;2.90;;;;;;;12.77;80.08;102359.94;5075961;28;20669;-78
2022/11/12 11:25:35;;;;;;;5.57;5.17;;;;;;;12.84;83.00;102319.75;5075818;28;20647;-79
2022/11/12 11:28:21;;;;;;;8.43;6.10;;;;;;;12.81;83.79;102281.31;5076740;28;20234;-78
2022/11/12 11:30:59;;;;;;;7.40;6.73;;;;;;;12.69;83.10;102284.78;5059559;28;20290;-77
2022/11/12 11:33:38;;;;;;;5.40;4.90;;;;;;;12.38;82.67;102307.41;5064867;28;20203;-79
2022/11/12 11:36:19;;;;;;;5.93;5.43;;;;;;;12.42;83.58;102262.00;5063517;28;20282;-77
2022/11/12 11:38:58;;;;;;;7.67;6.90;;;;;;;12.58;84.09;102247.22;5060742;28;20316;-78
2022/11/12 11:44:57;;;;;;;7.30;6.60;;;;;;;12.59;83.70;102246.34;5073951;28;20209;-78
2022/11/12 11:47:37;;;;;;;6.20;5.60;;;;;;;12.47;84.10;102228.00;5076999;28;20206;-78
2022/11/12 11:50:19;;;;;;;5.63;5.00;;;;;;;12.59;84.17;102224.53;5076970;28;20515;-78
2022/11/12 11:52:51;;;;;;;6.07;5.43;;;;;;;12.39;83.96;102234.94;4368650;28;10000766;-78
2022/11/12 11:55:35;;;;;;;7.43;6.73;;;;;;;12.44;84.34;102209.63;5058846;28;20213;-78
2022/11/12 11:58:14;;;;;;;11.00;10.10;;;;;;;12.64;84.50;102207.06;5073185;28;20223;-78
2022/11/12 12:00:52;;;;;;;6.50;6.00;;;;;;;12.51;83.52;102228.00;5073117;28;20210;-78
2022/11/12 12:03:22;;;;;;;5.80;5.30;;;;;;;12.52;82.54;102245.44;5073120;28;20228;-79
2022/11/12 12:06:04;;;;;;;6.82;6.32;;;;;;;12.64;82.81;102256.81;5072462;28;20439;-77